Paonia, CO (81428)

11:10 PM MDT on July 30, 2015 (GMT -0600)
Lamborn Mesa | | Change Station
CLOSE
Current Station
Personal Weather Station
Location: Paonia, CO
Elevation: 5900 ft
Nearby Weather Stations

Elev 5900 ft 38.86 °N, 107.59 °W | Updated 5 minutes ago

Clear
Clear
65.7 °F
Feels Like 65.7 °F
N
0.0
Wind Variable Wind from North
Gusts 3.1 mph

Today
High -- | Low -- °F
--% Chance of Precip.
Yesterday
High -- | Low -- °F
Precip. -- in
6:09 AM 8:23 PM
Full, 100% visible
Pressure 30.23 in
Visibility 7.0 miles
Clouds Clear
Dew Point 36 °F
Humidity 33%
Rainfall -999.00 in
Snow Depth Not available.
UV 0 out of 12
Pollen 6.30 out of 12
Air Quality Not available.
Flu Activity Not available.
METAR KAJZ 310455Z AUTO 06003KT 7SM CLR 23/01 A3023 RMK AO2 T02320006

More Conditions Fewer Conditions

Pressure 30.23 in
Visibility 7.0 miles
Clouds Clear
Dew Point 36 °F
Humidity 33%
Rainfall -999.00 in
Snow Depth Not available.
UV 0 out of 12
Pollen 6.30 out of 12
Air Quality Not available.
Flu Activity Not available.
METAR KAJZ 310455Z AUTO 06003KT 7SM CLR 23/01 A3023 RMK AO2 T02320006

More Conditions Fewer Conditions

10-Day Weather Forecast

×

Almanac

Astronomy

Jul. 30, 2015 Rise Set
Actual Time
Civil Twilight
Nautical Twilight
Astronomical Twilight
Moon
Length of Visible Light
Length of Day
Tomorrow will be .
, % of the Moon is Illuminated

Today's Extremes

State Highs State Lows

Community

WunderPhotos

Upload Photos

1,842,616 photos uploaded!

WunderBlogs® & News

Nearby

Air Quality

  Air Quality AQ Index Pollutant
Not available.

Snow Depth

Station Depth Elevation

Earthquake Activity

City Distance Mag. Time & Date
Minimum magnitude displayed is 2.5.

Coastal Water Temperatures

Place Temperature

Stations

Nearby Weather Stations

Station Location Temp. Windchill Dew Point Humidity Wind Precip. Elev Updated Type